createdAt,value
2018-11-01T00:02:27.602Z,95869.00
2018-11-01T00:04:58.627Z,95865.00
2018-11-01T00:07:29.556Z,95860.00
2018-11-01T00:10:00.484Z,95867.00
2018-11-01T00:12:31.356Z,95867.00
2018-11-01T00:15:02.610Z,95866.00
2018-11-01T00:17:33.830Z,95874.00
2018-11-01T00:20:04.817Z,95880.00
2018-11-01T00:22:36.122Z,95883.00
2018-11-01T00:25:09.369Z,95880.00
2018-11-01T00:27:40.648Z,95888.00
2018-11-01T00:30:12.042Z,95892.00
2018-11-01T00:32:43.046Z,95896.00
2018-11-01T00:35:14.001Z,95897.00
2018-11-01T00:37:44.927Z,95894.00
2018-11-01T00:40:15.916Z,95883.00
2018-11-01T00:42:46.781Z,95879.00
2018-11-01T00:45:17.650Z,95876.00
2018-11-01T00:47:48.446Z,95874.00
2018-11-01T00:50:19.256Z,95876.00
2018-11-01T00:52:50.105Z,95873.00
2018-11-01T00:55:26.315Z,95875.00
2018-11-01T00:57:57.112Z,95872.00
2018-11-01T01:00:28.045Z,95871.00
2018-11-01T01:02:58.916Z,95869.00
2018-11-01T01:05:30.109Z,95868.00
2018-11-01T01:08:01.039Z,95871.00
2018-11-01T01:10:31.888Z,95869.00
2018-11-01T01:13:02.885Z,95874.00
2018-11-01T01:15:33.725Z,95888.00
2018-11-01T01:18:04.630Z,95885.00
2018-11-01T01:20:35.422Z,95888.00
2018-11-01T01:23:07.026Z,95886.00
2018-11-01T01:25:37.851Z,95891.00
2018-11-01T01:28:08.779Z,95891.00
2018-11-01T01:30:39.705Z,95890.00
2018-11-01T01:33:10.668Z,95883.00
2018-11-01T01:35:41.561Z,95886.00
2018-11-01T01:38:12.464Z,95880.00
2018-11-01T01:40:43.346Z,95881.00
2018-11-01T01:43:14.341Z,95880.00
2018-11-01T01:45:45.169Z,95878.00
2018-11-01T01:48:16.102Z,95886.00
2018-11-01T01:50:47.121Z,95895.00
2018-11-01T01:53:18.089Z,95900.00
2018-11-01T01:55:48.868Z,95905.00
2018-11-01T01:58:19.707Z,95895.00
2018-11-01T02:00:50.509Z,95886.00
2018-11-01T02:03:21.330Z,95894.00
2018-11-01T02:05:52.169Z,95896.00
2018-11-01T02:08:22.865Z,95901.00
2018-11-01T02:10:53.598Z,95894.00
2018-11-01T02:13:24.515Z,95889.00
2018-11-01T02:15:55.256Z,95886.00
2018-11-01T02:18:26.038Z,95892.00
2018-11-01T02:20:56.872Z,95889.00
2018-11-01T02:23:27.712Z,95894.00
2018-11-01T02:25:58.498Z,95889.00
2018-11-01T02:28:29.405Z,95888.00
2018-11-01T02:31:00.233Z,95879.00
2018-11-01T02:33:31.326Z,95870.00
2018-11-01T02:36:02.478Z,95861.00
2018-11-01T02:38:33.551Z,95866.00
2018-11-01T02:41:04.286Z,95869.00
2018-11-01T02:43:35.135Z,95869.00
2018-11-01T02:46:05.894Z,95868.00
2018-11-01T02:48:36.722Z,95868.00
2018-11-01T02:51:07.605Z,95865.00
2018-11-01T02:53:38.340Z,95864.00
2018-11-01T02:56:09.108Z,95872.00
2018-11-01T02:58:39.886Z,95875.00
2018-11-01T03:01:14.783Z,95877.00
2018-11-01T03:03:46.060Z,95868.00
2018-11-01T03:06:16.925Z,95861.00
2018-11-01T03:08:47.728Z,95862.00
2018-11-01T03:11:18.370Z,95858.00
2018-11-01T03:13:49.143Z,95862.00
2018-11-01T03:16:20.033Z,95868.00
2018-11-01T03:18:50.858Z,95870.00
2018-11-01T03:21:21.566Z,95871.00
2018-11-01T03:23:52.373Z,95876.00
2018-11-01T03:26:23.165Z,95880.00
2018-11-01T03:28:57.844Z,95878.00
2018-11-01T03:31:28.922Z,95888.00
2018-11-01T03:33:59.670Z,95884.00
2018-11-01T03:36:30.548Z,95876.00
2018-11-01T03:39:01.393Z,95873.00
2018-11-01T03:41:32.230Z,95874.00
2018-11-01T03:44:03.113Z,95880.00
2018-11-01T03:46:33.999Z,95887.00
2018-11-01T03:49:04.937Z,95893.00
2018-11-01T03:51:35.715Z,95886.00
2018-11-01T03:54:07.026Z,95886.00
2018-11-01T03:56:44.299Z,95881.00
2018-11-01T03:59:15.166Z,95877.00
2018-11-01T04:01:45.878Z,95882.00
2018-11-01T04:04:16.887Z,95876.00
2018-11-01T04:06:47.834Z,95866.00
2018-11-01T04:09:18.656Z,95873.00
2018-11-01T04:11:49.677Z,95881.00
2018-11-01T04:14:20.511Z,95883.00
2018-11-01T04:16:51.351Z,95885.00
2018-11-01T04:19:22.076Z,95883.00
2018-11-01T04:22:07.466Z,95884.00
2018-11-01T04:24:38.683Z,95891.00
2018-11-01T04:27:09.545Z,95887.00
2018-11-01T04:29:40.327Z,95881.00
2018-11-01T04:32:11.248Z,95881.00
2018-11-01T04:34:42.140Z,95875.00
2018-11-01T04:37:13.057Z,95872.00
2018-11-01T04:39:43.896Z,95873.00
2018-11-01T04:42:14.750Z,95870.00
2018-11-01T04:44:45.712Z,95877.00
2018-11-01T04:47:16.691Z,95871.00
2018-11-01T04:49:47.527Z,95874.00
2018-11-01T04:52:18.423Z,95870.00
2018-11-01T04:54:49.392Z,95863.00
2018-11-01T04:57:20.491Z,95860.00
2018-11-01T04:59:51.473Z,95864.00
2018-11-01T05:02:22.584Z,95871.00
2018-11-01T05:04:53.727Z,95871.00
2018-11-01T05:07:24.602Z,95876.00
2018-11-01T05:09:55.769Z,95871.00
2018-11-01T05:12:26.650Z,95877.00
2018-11-01T05:14:57.871Z,95872.00
2018-11-01T05:17:28.954Z,95871.00
2018-11-01T05:19:59.807Z,95873.00
2018-11-01T05:22:31.024Z,95879.00
2018-11-01T05:25:01.971Z,95887.00
2018-11-01T05:27:32.987Z,95893.00
2018-11-01T05:30:04.229Z,95899.00
2018-11-01T05:32:36.260Z,95895.00
2018-11-01T05:35:07.981Z,95893.00
2018-11-01T05:37:39.228Z,95896.00
2018-11-01T05:40:11.721Z,95904.00
2018-11-01T05:42:43.841Z,95908.00
2018-11-01T05:45:15.277Z,95916.00
2018-11-01T05:47:46.289Z,95918.00
2018-11-01T05:50:17.360Z,95915.00
2018-11-01T05:52:48.264Z,95924.00
2018-11-01T05:55:19.214Z,95929.00
2018-11-01T05:57:50.533Z,95929.00
2018-11-01T06:00:21.696Z,95923.00
2018-11-01T06:02:52.974Z,95928.00
2018-11-01T06:05:24.105Z,95936.00
2018-11-01T06:07:57.772Z,95929.00
2018-11-01T06:10:28.826Z,95928.00
2018-11-01T06:13:00.107Z,95929.00
2018-11-01T06:15:31.157Z,95935.00
2018-11-01T06:18:02.070Z,95932.00
2018-11-01T06:20:33.215Z,95938.00
2018-11-01T06:23:04.520Z,95945.00
2018-11-01T06:25:35.383Z,95954.00
2018-11-01T06:28:06.521Z,95953.00
2018-11-01T06:30:38.427Z,95942.00
2018-11-01T06:33:09.553Z,95942.00
2018-11-01T06:35:44.758Z,95944.00
2018-11-01T06:38:15.734Z,95943.00
2018-11-01T06:40:46.793Z,95940.00
2018-11-01T06:43:17.910Z,95946.00
2018-11-01T06:45:48.824Z,95943.00
2018-11-01T06:48:19.889Z,95943.00
2018-11-01T06:50:50.949Z,95939.00
2018-11-01T06:53:21.906Z,95938.00
2018-11-01T06:55:52.808Z,95937.00
2018-11-01T06:58:23.839Z,95938.00
2018-11-01T07:00:54.781Z,95945.00
2018-11-01T07:03:25.767Z,95948.00
2018-11-01T07:05:56.796Z,95954.00
2018-11-01T07:08:27.802Z,95948.00
2018-11-01T07:10:58.788Z,95943.00
2018-11-01T07:13:29.613Z,95940.00
2018-11-01T07:16:00.586Z,95945.00
2018-11-01T07:18:31.648Z,95943.00
2018-11-01T07:21:02.566Z,95936.00
2018-11-01T07:23:33.569Z,95938.00
2018-11-01T07:26:04.626Z,95933.00
2018-11-01T07:28:41.569Z,95932.00
2018-11-01T07:31:12.612Z,95930.00
2018-11-01T07:33:43.631Z,95926.00
2018-11-01T07:36:14.530Z,95926.00
2018-11-01T07:38:45.466Z,95925.00
2018-11-01T07:41:16.579Z,95928.00
2018-11-01T07:43:47.772Z,95928.00
2018-11-01T07:46:18.881Z,95921.00
2018-11-01T07:48:49.847Z,95924.00
2018-11-01T07:51:20.788Z,95929.00
2018-11-01T07:53:51.810Z,95923.00
2018-11-01T07:56:22.688Z,95924.00
2018-11-01T07:58:53.729Z,95930.00
2018-11-01T08:01:24.799Z,95934.00
2018-11-01T08:03:55.869Z,95925.00
2018-11-01T08:06:26.860Z,95926.00
2018-11-01T08:08:57.836Z,95927.00
2018-11-01T08:11:28.827Z,95927.00
2018-11-01T08:14:00.007Z,95927.00
2018-11-01T08:16:31.056Z,95931.00
2018-11-01T08:19:02.519Z,95923.00
2018-11-01T08:21:33.589Z,95926.00
2018-11-01T08:24:04.713Z,95924.00
2018-11-01T08:26:35.680Z,95920.00
2018-11-01T08:29:06.694Z,95919.00
2018-11-01T08:31:37.625Z,95915.00
2018-11-01T08:34:09.715Z,95913.00
2018-11-01T08:36:40.694Z,95908.00
2018-11-01T08:39:11.704Z,95914.00
2018-11-01T08:41:42.831Z,95918.00
2018-11-01T08:44:14.268Z,95915.00
2018-11-01T08:46:45.435Z,95922.00
2018-11-01T08:49:16.695Z,95921.00
2018-11-01T08:51:48.275Z,95920.00
2018-11-01T08:54:19.664Z,95918.00
2018-11-01T08:56:51.075Z,95914.00
2018-11-01T08:59:22.304Z,95913.00
2018-11-01T09:01:53.591Z,95906.00
2018-11-01T09:04:25.112Z,95894.00
2018-11-01T09:06:56.571Z,95881.00
2018-11-01T09:09:27.625Z,95877.00
2018-11-01T09:11:58.679Z,95881.00
2018-11-01T09:14:29.730Z,95882.00
2018-11-01T09:17:00.744Z,95885.00
2018-11-01T09:19:31.834Z,95883.00
2018-11-01T09:22:02.832Z,95883.00
2018-11-01T09:24:33.691Z,95885.00
2018-11-01T09:27:05.198Z,95886.00
2018-11-01T09:29:36.386Z,95886.00
2018-11-01T09:32:07.721Z,95889.00
2018-11-01T09:34:38.837Z,95892.00
2018-11-01T09:37:10.090Z,95890.00
2018-11-01T09:39:41.418Z,95887.00
2018-11-01T09:42:12.703Z,95884.00
2018-11-01T09:44:43.996Z,95878.00
2018-11-01T09:47:15.629Z,95876.00
2018-11-01T09:49:46.358Z,95876.00
2018-11-01T09:52:18.209Z,95874.00
2018-11-01T09:54:49.396Z,95873.00
2018-11-01T09:57:20.563Z,95875.00
2018-11-01T09:59:51.837Z,95879.00
2018-11-01T10:02:23.229Z,95868.00
2018-11-01T10:04:54.500Z,95868.00
2018-11-01T10:07:25.766Z,95863.00
2018-11-01T10:09:57.140Z,95860.00
2018-11-01T10:12:28.603Z,95861.00
2018-11-01T10:15:00.148Z,95851.00
2018-11-01T10:17:32.021Z,95840.00
2018-11-01T10:20:03.041Z,95844.00
2018-11-01T10:22:34.492Z,95838.00
2018-11-01T10:25:06.706Z,95834.00
2018-11-01T10:27:39.316Z,95843.00
2018-11-01T10:30:20.232Z,95835.00
2018-11-01T10:32:52.153Z,95838.00
2018-11-01T10:35:23.511Z,95834.00
2018-11-01T10:37:55.347Z,95832.00
2018-11-01T10:40:26.672Z,95827.00
2018-11-01T10:42:58.022Z,95828.00
2018-11-01T10:45:29.650Z,95822.00
2018-11-01T10:48:01.018Z,95832.00
2018-11-01T10:50:32.471Z,95831.00
2018-11-01T10:53:03.680Z,95828.00
2018-11-01T10:55:35.354Z,95823.00
2018-11-01T10:58:06.942Z,95820.00
2018-11-01T11:00:43.148Z,95817.00
2018-11-01T11:03:14.614Z,95818.00
2018-11-01T11:05:46.187Z,95819.00
2018-11-01T11:08:17.509Z,95816.00
2018-11-01T11:10:49.023Z,95819.00
2018-11-01T11:13:20.639Z,95811.00
2018-11-01T11:15:52.409Z,95813.00
2018-11-01T11:18:23.615Z,95815.00
2018-11-01T11:20:55.542Z,95809.00
2018-11-01T11:23:27.877Z,95798.00
2018-11-01T11:26:00.078Z,95795.00
2018-11-01T11:28:31.703Z,95788.00
2018-11-01T11:31:03.181Z,95788.00
2018-11-01T11:33:34.751Z,95791.00
2018-11-01T11:36:06.801Z,95793.00
2018-11-01T11:38:38.236Z,95789.00
2018-11-01T11:41:09.614Z,95790.00
2018-11-01T11:43:41.145Z,95793.00
2018-11-01T11:46:12.550Z,95787.00
2018-11-01T11:48:43.950Z,95784.00
2018-11-01T11:51:15.418Z,95772.00
2018-11-01T11:53:46.521Z,95771.00
2018-11-01T11:56:17.865Z,95769.00
2018-11-01T11:58:48.997Z,95766.00
2018-11-01T12:01:20.440Z,95762.00
2018-11-01T12:03:51.660Z,95757.00
2018-11-01T12:06:22.854Z,95754.00
2018-11-01T12:08:53.850Z,95753.00
2018-11-01T12:11:24.808Z,95749.00
2018-11-01T12:13:56.046Z,95745.00
2018-11-01T12:16:27.234Z,95751.00
2018-11-01T12:18:58.620Z,95745.00
2018-11-01T12:21:29.832Z,95751.00
2018-11-01T12:24:00.975Z,95743.00
2018-11-01T12:26:32.420Z,95740.00
2018-11-01T12:29:04.048Z,95737.00
2018-11-01T12:31:35.194Z,95738.00
2018-11-01T12:34:06.982Z,95732.00
2018-11-01T12:36:38.055Z,95735.00
2018-11-01T12:39:10.126Z,95741.00
2018-11-01T12:41:41.342Z,95744.00
2018-11-01T12:44:13.302Z,95741.00
2018-11-01T12:46:44.450Z,95748.00
2018-11-01T12:49:15.687Z,95744.00
2018-11-01T12:51:46.917Z,95743.00
2018-11-01T12:54:18.088Z,95737.00
2018-11-01T12:56:49.439Z,95738.00
2018-11-01T12:59:20.653Z,95743.00
2018-11-01T13:01:51.859Z,95745.00
2018-11-01T13:04:22.978Z,95743.00
2018-11-01T13:06:54.046Z,95744.00
2018-11-01T13:09:25.213Z,95744.00
2018-11-01T13:12:11.221Z,95745.00
2018-11-01T13:14:42.718Z,95738.00
2018-11-01T13:17:14.295Z,95736.00
2018-11-01T13:19:45.898Z,95737.00
2018-11-01T13:22:17.436Z,95739.00
2018-11-01T13:24:49.030Z,95734.00
2018-11-01T13:27:20.502Z,95736.00
2018-11-01T13:29:51.778Z,95739.00
2018-11-01T13:32:23.157Z,95741.00
2018-11-01T13:34:54.557Z,95742.00
2018-11-01T13:37:25.919Z,95742.00
2018-11-01T13:39:57.614Z,95742.00
2018-11-01T13:42:28.979Z,95747.00
2018-11-01T13:45:00.184Z,95748.00
2018-11-01T13:47:31.490Z,95757.00
2018-11-01T13:50:02.585Z,95752.00
2018-11-01T13:52:34.220Z,95753.00
2018-11-01T13:55:06.436Z,95749.00
2018-11-01T13:57:37.825Z,95748.00
2018-11-01T14:00:10.342Z,95743.00
2018-11-01T14:02:42.504Z,95746.00
2018-11-01T14:05:15.695Z,95753.00
2018-11-01T14:07:46.825Z,95751.00
2018-11-01T14:10:18.086Z,95750.00
2018-11-01T14:12:49.223Z,95747.00
2018-11-01T14:15:20.845Z,95748.00
2018-11-01T14:17:51.721Z,95749.00
2018-11-01T14:20:22.628Z,95747.00
2018-11-01T14:22:53.787Z,95736.00
2018-11-01T14:25:24.985Z,95732.00
2018-11-01T14:27:56.239Z,95729.00
2018-11-01T14:30:27.267Z,95731.00
2018-11-01T14:32:58.327Z,95729.00
2018-11-01T14:35:29.484Z,95734.00
2018-11-01T14:38:00.680Z,95727.00
2018-11-01T14:40:31.873Z,95721.00
2018-11-01T14:43:03.496Z,95717.00
2018-11-01T14:45:34.743Z,95726.00
2018-11-01T14:48:05.920Z,95722.00
2018-11-01T14:50:37.417Z,95725.00
2018-11-01T14:53:09.009Z,95722.00
2018-11-01T14:55:41.237Z,95717.00
2018-11-01T14:58:12.412Z,95721.00
2018-11-01T15:00:41.940Z,95723.00
2018-11-01T15:03:13.111Z,95722.00
2018-11-01T15:05:44.215Z,95720.00
2018-11-01T15:08:15.360Z,95721.00
2018-11-01T15:10:46.416Z,95726.00
2018-11-01T15:13:17.702Z,95731.00
2018-11-01T15:15:48.686Z,95736.00
2018-11-01T15:18:19.659Z,95742.00
2018-11-01T15:20:50.972Z,95741.00
2018-11-01T15:23:22.232Z,95750.00
2018-11-01T15:25:53.585Z,95754.00
2018-11-01T15:28:24.812Z,95753.00
2018-11-01T15:30:56.055Z,95754.00
2018-11-01T15:33:27.147Z,95762.00
2018-11-01T15:35:59.199Z,95762.00
2018-11-01T15:38:30.390Z,95772.00
2018-11-01T15:41:05.733Z,95770.00
2018-11-01T15:43:37.069Z,95768.00
2018-11-01T15:46:09.864Z,95769.00
2018-11-01T15:48:41.704Z,95771.00
2018-11-01T15:51:12.990Z,95770.00
2018-11-01T15:53:44.600Z,95776.00
2018-11-01T15:56:17.113Z,95782.00
2018-11-01T15:58:48.826Z,95774.00
2018-11-01T16:01:28.416Z,95775.00
2018-11-01T16:04:00.091Z,95783.00
2018-11-01T16:06:32.085Z,95783.00
2018-11-01T16:09:04.597Z,95785.00
2018-11-01T16:11:36.415Z,95791.00
2018-11-01T16:14:07.904Z,95784.00
2018-11-01T16:16:39.728Z,95787.00
2018-11-01T16:19:11.907Z,95785.00
2018-11-01T16:21:43.842Z,95786.00
2018-11-01T16:24:15.412Z,95790.00
2018-11-01T16:26:47.140Z,95788.00
2018-11-01T16:29:19.673Z,95789.00
2018-11-01T16:31:53.647Z,95783.00
2018-11-01T16:34:25.007Z,95781.00
2018-11-01T16:36:58.083Z,95785.00
2018-11-01T16:40:58.957Z,95782.00
2018-11-01T16:43:30.153Z,95766.00
2018-11-01T16:46:01.543Z,95754.00
2018-11-01T16:48:34.962Z,95745.00
2018-11-01T16:51:07.078Z,95729.00
2018-11-01T16:53:40.610Z,95710.00
2018-11-01T16:56:11.985Z,95715.00
2018-11-01T16:58:43.162Z,95730.00
2018-11-01T17:01:14.665Z,95728.00
2018-11-01T17:03:46.054Z,95717.00
2018-11-01T17:06:18.285Z,95722.00
2018-11-01T17:08:49.619Z,95734.00
2018-11-01T17:11:20.651Z,95743.00
2018-11-01T17:13:51.795Z,95747.00
2018-11-01T17:16:22.926Z,95760.00
2018-11-01T17:18:54.400Z,95766.00
2018-11-01T17:21:25.798Z,95775.00
2018-11-01T17:23:57.086Z,95778.00
2018-11-01T17:26:28.542Z,95779.00
2018-11-01T17:28:59.946Z,95781.00
2018-11-01T17:31:31.141Z,95779.00
2018-11-01T17:34:02.708Z,95772.00
2018-11-01T17:36:34.061Z,95781.00
2018-11-01T17:39:08.666Z,95783.00
2018-11-01T17:41:40.102Z,95781.00
2018-11-01T17:44:11.647Z,95787.00
2018-11-01T17:46:43.254Z,95795.00
2018-11-01T17:49:14.590Z,95795.00
2018-11-01T17:51:46.219Z,95791.00
2018-11-01T17:54:17.958Z,95781.00
2018-11-01T17:56:49.558Z,95774.00
2018-11-01T17:59:22.568Z,95782.00
2018-11-01T18:01:54.967Z,95790.00
2018-11-01T18:04:27.232Z,95801.00
2018-11-01T18:06:58.796Z,95795.00
2018-11-01T18:09:30.873Z,95795.00
2018-11-01T18:12:02.507Z,95798.00
2018-11-01T18:14:33.782Z,95797.00
2018-11-01T18:17:05.270Z,95790.00
2018-11-01T18:19:37.618Z,95792.00
2018-11-01T18:22:08.810Z,95788.00
2018-11-01T18:24:40.028Z,95795.00
2018-11-01T18:27:11.739Z,95793.00
2018-11-01T18:29:42.841Z,95798.00
2018-11-01T18:32:14.188Z,95801.00
2018-11-01T18:34:46.784Z,95797.00
2018-11-01T18:37:18.111Z,95800.00
2018-11-01T18:39:49.770Z,95803.00
2018-11-01T18:42:21.682Z,95802.00
2018-11-01T18:44:55.569Z,95805.00
2018-11-01T18:47:28.731Z,95811.00
2018-11-01T18:50:00.188Z,95810.00
2018-11-01T18:52:32.363Z,95814.00
2018-11-01T18:55:04.901Z,95825.00
2018-11-01T18:57:36.524Z,95829.00
2018-11-01T19:00:13.559Z,95830.00
2018-11-01T19:02:45.074Z,95826.00
2018-11-01T19:05:17.309Z,95826.00
2018-11-01T19:07:48.837Z,95829.00
2018-11-01T19:10:20.475Z,95828.00
2018-11-01T19:12:52.394Z,95830.00
2018-11-01T19:15:24.759Z,95827.00
2018-11-01T19:17:56.478Z,95828.00
2018-11-01T19:20:28.155Z,95829.00
2018-11-01T19:22:59.715Z,95834.00
2018-11-01T19:25:32.039Z,95831.00
2018-11-01T19:28:05.480Z,95833.00
2018-11-01T19:30:39.304Z,95832.00
2018-11-01T19:33:11.081Z,95834.00
2018-11-01T19:35:42.695Z,95833.00
2018-11-01T19:38:14.902Z,95838.00
2018-11-01T19:40:46.521Z,95840.00
2018-11-01T19:43:17.836Z,95844.00
2018-11-01T19:45:49.028Z,95840.00
2018-11-01T19:48:20.254Z,95837.00
2018-11-01T19:50:51.623Z,95838.00
2018-11-01T19:53:23.149Z,95835.00
2018-11-01T19:55:54.872Z,95837.00
2018-11-01T19:58:27.443Z,95837.00
2018-11-01T20:00:58.804Z,95843.00
2018-11-01T20:03:32.624Z,95846.00
2018-11-01T20:06:04.776Z,95846.00
2018-11-01T20:08:35.953Z,95843.00
2018-11-01T20:11:07.448Z,95844.00
2018-11-01T20:13:39.470Z,95848.00
2018-11-01T20:16:10.654Z,95845.00
2018-11-01T20:18:42.099Z,95845.00
2018-11-01T20:21:13.355Z,95848.00
2018-11-01T20:23:47.901Z,95848.00
2018-11-01T20:26:19.004Z,95846.00
2018-11-01T20:28:50.301Z,95847.00
2018-11-01T20:31:21.489Z,95846.00
2018-11-01T20:33:52.795Z,95841.00
2018-11-01T20:36:24.177Z,95846.00
2018-11-01T20:38:55.574Z,95846.00
2018-11-01T20:41:26.728Z,95845.00
2018-11-01T20:43:58.047Z,95847.00
2018-11-01T20:46:29.210Z,95842.00
2018-11-01T20:49:00.989Z,95843.00
2018-11-01T20:51:32.314Z,95841.00
2018-11-01T20:54:03.303Z,95839.00
2018-11-01T20:56:34.401Z,95836.00
2018-11-01T20:59:05.702Z,95842.00
2018-11-01T21:01:39.041Z,95836.00
2018-11-01T21:04:10.220Z,95834.00
2018-11-01T21:06:41.680Z,95837.00
2018-11-01T21:09:13.255Z,95845.00
2018-11-01T21:11:48.477Z,95841.00
2018-11-01T21:14:20.667Z,95836.00
2018-11-01T21:16:51.754Z,95835.00
2018-11-01T21:19:22.846Z,95836.00
2018-11-01T21:21:54.255Z,95838.00
2018-11-01T21:24:25.319Z,95833.00
2018-11-01T21:26:56.483Z,95834.00
2018-11-01T21:29:27.404Z,95838.00
2018-11-01T21:31:58.669Z,95838.00
2018-11-01T21:34:30.881Z,95838.00
2018-11-01T21:37:02.095Z,95832.00
2018-11-01T21:39:33.136Z,95831.00
2018-11-01T21:42:04.975Z,95829.00
2018-11-01T21:44:36.004Z,95834.00
2018-11-01T21:47:07.484Z,95837.00
2018-11-01T21:49:38.533Z,95842.00
2018-11-01T21:52:09.674Z,95841.00
2018-11-01T21:54:40.576Z,95844.00
2018-11-01T21:57:11.469Z,95857.00
2018-11-01T21:59:42.982Z,95856.00
2018-11-01T22:02:13.981Z,95860.00
2018-11-01T22:04:44.965Z,95857.00
2018-11-01T22:07:16.063Z,95868.00
2018-11-01T22:09:47.080Z,95863.00
2018-11-01T22:12:18.151Z,95866.00
2018-11-01T22:14:49.179Z,95858.00
2018-11-01T22:17:20.114Z,95859.00
2018-11-01T22:19:50.985Z,95860.00
2018-11-01T22:22:22.047Z,95867.00
2018-11-01T22:24:53.008Z,95868.00
2018-11-01T22:27:24.077Z,95864.00
2018-11-01T22:29:55.235Z,95862.00
2018-11-01T22:32:26.301Z,95862.00
2018-11-01T22:34:57.307Z,95863.00
2018-11-01T22:37:28.254Z,95864.00
2018-11-01T22:39:59.145Z,95864.00
2018-11-01T22:42:30.122Z,95863.00
2018-11-01T22:45:01.349Z,95862.00
2018-11-01T22:47:32.334Z,95864.00
2018-11-01T22:50:03.320Z,95862.00
2018-11-01T22:52:34.499Z,95864.00
2018-11-01T22:55:06.841Z,95865.00
2018-11-01T22:57:38.009Z,95860.00
2018-11-01T23:00:13.847Z,95861.00
2018-11-01T23:02:45.505Z,95862.00
2018-11-01T23:05:16.639Z,95859.00
2018-11-01T23:07:47.753Z,95854.00
2018-11-01T23:10:18.895Z,95848.00
2018-11-01T23:12:50.101Z,95844.00
2018-11-01T23:15:21.003Z,95849.00
2018-11-01T23:17:52.397Z,95851.00
2018-11-01T23:20:23.356Z,95851.00
2018-11-01T23:22:54.501Z,95852.00
2018-11-01T23:25:25.312Z,95857.00
2018-11-01T23:27:56.375Z,95850.00
2018-11-01T23:30:27.489Z,95852.00
2018-11-01T23:32:58.579Z,95858.00
2018-11-01T23:35:29.460Z,95860.00
2018-11-01T23:38:05.376Z,95860.00
2018-11-01T23:40:41.671Z,95865.00
2018-11-01T23:43:17.700Z,95869.00
2018-11-01T23:45:53.967Z,95868.00
2018-11-01T23:48:23.812Z,95863.00
2018-11-01T23:51:07.485Z,95868.00
2018-11-01T23:53:42.856Z,95868.00
2018-11-01T23:56:13.714Z,95871.00
2018-11-01T23:58:45.108Z,95862.00
